sensor_id;sensor_type;location;lat;lon;timestamp;pressure;altitude;pressure_sealevel;temperature;humidity
70952;BME280;69214;55.880;37.542;2023-05-01T00:00:54;97922.56;;;6.15;86.97
70952;BME280;69214;55.880;37.542;2023-05-01T00:03:20;97916.91;;;6.16;86.12
70952;BME280;69214;55.880;37.542;2023-05-01T00:05:46;97911.16;;;6.13;86.63
70952;BME280;69214;55.880;37.542;2023-05-01T00:08:12;97906.22;;;6.10;85.93
70952;BME280;69214;55.880;37.542;2023-05-01T00:10:38;97907.75;;;6.06;86.06
70952;BME280;69214;55.880;37.542;2023-05-01T00:13:04;97913.66;;;6.03;86.76
70952;BME280;69214;55.880;37.542;2023-05-01T00:15:31;97911.91;;;5.97;86.36
70952;BME280;69214;55.880;37.542;2023-05-01T00:17:57;97919.78;;;5.98;87.00
70952;BME280;69214;55.880;37.542;2023-05-01T00:20:26;97917.34;;;5.97;86.79
70952;BME280;69214;55.880;37.542;2023-05-01T00:22:52;97919.44;;;5.95;86.92
70952;BME280;69214;55.880;37.542;2023-05-01T00:25:18;97911.56;;;5.81;86.50
70952;BME280;69214;55.880;37.542;2023-05-01T00:27:43;97926.16;;;5.92;86.50
70952;BME280;69214;55.880;37.542;2023-05-01T00:30:10;97901.81;;;5.80;86.49
70952;BME280;69214;55.880;37.542;2023-05-01T00:32:36;97938.06;;;5.91;86.61
70952;BME280;69214;55.880;37.542;2023-05-01T00:35:03;97926.03;;;5.87;86.76
70952;BME280;69214;55.880;37.542;2023-05-01T00:37:29;97930.63;;;5.86;87.05
70952;BME280;69214;55.880;37.542;2023-05-01T00:39:54;97944.41;;;5.97;87.26
70952;BME280;69214;55.880;37.542;2023-05-01T00:42:20;97940.41;;;5.99;86.99
70952;BME280;69214;55.880;37.542;2023-05-01T00:44:46;97940.75;;;6.03;86.98
70952;BME280;69214;55.880;37.542;2023-05-01T00:47:12;97932.16;;;5.94;86.57
70952;BME280;69214;55.880;37.542;2023-05-01T00:49:43;97941.91;;;6.07;86.75
70952;BME280;69214;55.880;37.542;2023-05-01T00:52:10;97929.19;;;6.07;86.79
70952;BME280;69214;55.880;37.542;2023-05-01T00:54:36;97914.81;;;6.07;86.52
70952;BME280;69214;55.880;37.542;2023-05-01T00:57:02;97906.13;;;6.05;86.77
70952;BME280;69214;55.880;37.542;2023-05-01T00:59:28;97897.75;;;6.06;86.58
70952;BME280;69214;55.880;37.542;2023-05-01T01:01:54;97886.00;;;6.01;86.75
70952;BME280;69214;55.880;37.542;2023-05-01T01:04:20;97883.06;;;6.02;87.00
70952;BME280;69214;55.880;37.542;2023-05-01T01:14:57;97926.16;;;5.92;87.06
70952;BME280;69214;55.880;37.542;2023-05-01T01:17:30;97925.78;;;5.89;87.26
70952;BME280;69214;55.880;37.542;2023-05-01T01:22:46;97950.97;;;6.01;87.35
70952;BME280;69214;55.880;37.542;2023-05-01T01:34:33;97941.34;;;6.33;87.25
70952;BME280;69214;55.880;37.542;2023-05-01T01:40:04;97915.75;;;6.41;87.11
70952;BME280;69214;55.880;37.542;2023-05-01T01:42:43;97901.13;;;6.42;87.27
70952;BME280;69214;55.880;37.542;2023-05-01T01:45:24;97895.13;;;6.40;87.38
70952;BME280;69214;55.880;37.542;2023-05-01T01:47:55;97917.06;;;6.38;86.83
70952;BME280;69214;55.880;37.542;2023-05-01T01:50:24;97905.53;;;6.31;86.85
70952;BME280;69214;55.880;37.542;2023-05-01T01:52:53;97896.94;;;6.34;86.99
70952;BME280;69214;55.880;37.542;2023-05-01T01:55:24;97884.44;;;6.33;86.88
70952;BME280;69214;55.880;37.542;2023-05-01T01:57:52;97883.81;;;6.43;87.03
70952;BME280;69214;55.880;37.542;2023-05-01T02:00:19;97876.75;;;6.42;86.75
70952;BME280;69214;55.880;37.542;2023-05-01T02:02:48;97895.47;;;6.43;87.24
70952;BME280;69214;55.880;37.542;2023-05-01T02:05:16;97902.53;;;6.44;87.34
70952;BME280;69214;55.880;37.542;2023-05-01T02:07:45;97903.44;;;6.50;87.51
70952;BME280;69214;55.880;37.542;2023-05-01T02:10:13;97878.31;;;6.55;87.41
70952;BME280;69214;55.880;37.542;2023-05-01T02:12:41;97874.63;;;6.61;86.91
70952;BME280;69214;55.880;37.542;2023-05-01T02:15:09;97863.72;;;6.56;87.29
70952;BME280;69214;55.880;37.542;2023-05-01T02:17:37;97885.47;;;6.61;86.91
70952;BME280;69214;55.880;37.542;2023-05-01T02:20:06;97886.38;;;6.66;86.96
70952;BME280;69214;55.880;37.542;2023-05-01T02:22:34;97885.88;;;6.69;87.47
70952;BME280;69214;55.880;37.542;2023-05-01T02:25:02;97881.22;;;6.65;86.75
70952;BME280;69214;55.880;37.542;2023-05-01T02:27:49;97893.19;;;6.69;87.04
70952;BME280;69214;55.880;37.542;2023-05-01T02:30:17;97889.66;;;6.68;87.28
70952;BME280;69214;55.880;37.542;2023-05-01T02:32:43;97874.22;;;6.69;87.34
70952;BME280;69214;55.880;37.542;2023-05-01T02:35:09;97858.53;;;6.71;86.91
70952;BME280;69214;55.880;37.542;2023-05-01T02:37:36;97856.72;;;6.76;87.31
70952;BME280;69214;55.880;37.542;2023-05-01T02:40:03;97867.91;;;6.80;87.10
70952;BME280;69214;55.880;37.542;2023-05-01T02:42:31;97872.19;;;6.76;86.84
70952;BME280;69214;55.880;37.542;2023-05-01T02:45:01;97900.94;;;6.77;87.33
70952;BME280;69214;55.880;37.542;2023-05-01T02:47:31;97902.91;;;6.81;87.25
70952;BME280;69214;55.880;37.542;2023-05-01T02:49:59;97915.72;;;6.86;87.34
70952;BME280;69214;55.880;37.542;2023-05-01T02:52:26;97928.63;;;6.96;87.33
70952;BME280;69214;55.880;37.542;2023-05-01T02:55:05;97939.13;;;7.09;87.39
70952;BME280;69214;55.880;37.542;2023-05-01T02:57:32;97936.25;;;7.15;87.56
70952;BME280;69214;55.880;37.542;2023-05-01T02:59:57;97944.47;;;7.21;87.39
70952;BME280;69214;55.880;37.542;2023-05-01T03:02:23;97949.00;;;7.32;87.31
70952;BME280;69214;55.880;37.542;2023-05-01T03:04:49;97942.91;;;7.41;87.51
70952;BME280;69214;55.880;37.542;2023-05-01T03:07:14;97941.41;;;7.51;86.90
70952;BME280;69214;55.880;37.542;2023-05-01T03:09:40;97939.59;;;7.56;86.86
70952;BME280;69214;55.880;37.542;2023-05-01T03:12:06;97938.16;;;7.70;86.62
70952;BME280;69214;55.880;37.542;2023-05-01T03:14:31;97931.78;;;7.82;87.28
70952;BME280;69214;55.880;37.542;2023-05-01T03:16:57;97918.28;;;7.87;86.27
70952;BME280;69214;55.880;37.542;2023-05-01T03:19:23;97906.03;;;7.84;86.58
70952;BME280;69214;55.880;37.542;2023-05-01T03:21:49;97913.03;;;8.02;86.92
70952;BME280;69214;55.880;37.542;2023-05-01T03:24:15;97917.00;;;8.16;86.74
70952;BME280;69214;55.880;37.542;2023-05-01T03:26:41;97913.97;;;8.34;86.95
70952;BME280;69214;55.880;37.542;2023-05-01T03:29:07;97920.16;;;8.52;86.32
70952;BME280;69214;55.880;37.542;2023-05-01T03:31:33;97921.47;;;8.76;86.51
70952;BME280;69214;55.880;37.542;2023-05-01T03:33:59;97916.69;;;8.88;86.06
70952;BME280;69214;55.880;37.542;2023-05-01T03:36:24;97919.22;;;9.00;85.94
70952;BME280;69214;55.880;37.542;2023-05-01T03:38:52;97920.06;;;9.00;85.19
70952;BME280;69214;55.880;37.542;2023-05-01T03:41:35;97922.72;;;8.95;85.86
70952;BME280;69214;55.880;37.542;2023-05-01T03:44:17;97918.28;;;8.84;85.29
70952;BME280;69214;55.880;37.542;2023-05-01T03:46:43;97916.28;;;8.74;85.65
70952;BME280;69214;55.880;37.542;2023-05-01T03:49:15;97923.84;;;8.67;85.25
70952;BME280;69214;55.880;37.542;2023-05-01T03:51:45;97939.13;;;8.73;86.07
70952;BME280;69214;55.880;37.542;2023-05-01T03:54:11;97931.22;;;8.72;85.25
70952;BME280;69214;55.880;37.542;2023-05-01T03:56:56;97938.41;;;8.83;85.65
70952;BME280;69214;55.880;37.542;2023-05-01T03:59:23;97938.50;;;8.93;85.52
70952;BME280;69214;55.880;37.542;2023-05-01T04:01:49;97937.66;;;8.93;85.44
70952;BME280;69214;55.880;37.542;2023-05-01T04:04:15;97936.63;;;8.99;84.52
70952;BME280;69214;55.880;37.542;2023-05-01T04:06:46;97937.03;;;9.13;84.79
70952;BME280;69214;55.880;37.542;2023-05-01T04:09:15;97933.59;;;9.27;84.46
70952;BME280;69214;55.880;37.542;2023-05-01T04:11:40;97929.03;;;9.38;83.16
70952;BME280;69214;55.880;37.542;2023-05-01T04:14:06;97929.38;;;9.47;83.32
70952;BME280;69214;55.880;37.542;2023-05-01T04:16:34;97931.09;;;9.58;82.83
70952;BME280;69214;55.880;37.542;2023-05-01T04:19:01;97932.25;;;9.72;82.27
70952;BME280;69214;55.880;37.542;2023-05-01T04:21:28;97940.22;;;9.84;81.85
70952;BME280;69214;55.880;37.542;2023-05-01T04:23:54;97943.22;;;9.82;81.63
70952;BME280;69214;55.880;37.542;2023-05-01T04:26:20;97938.81;;;9.76;81.19
70952;BME280;69214;55.880;37.542;2023-05-01T04:28:46;97948.91;;;9.81;81.95
70952;BME280;69214;55.880;37.542;2023-05-01T04:31:15;97946.47;;;9.79;81.48
70952;BME280;69214;55.880;37.542;2023-05-01T04:33:41;97942.88;;;9.73;81.47
70952;BME280;69214;55.880;37.542;2023-05-01T04:36:07;97936.88;;;9.71;81.46
70952;BME280;69214;55.880;37.542;2023-05-01T04:38:33;97937.94;;;9.65;81.84
70952;BME280;69214;55.880;37.542;2023-05-01T04:41:02;97944.72;;;9.63;82.08
70952;BME280;69214;55.880;37.542;2023-05-01T04:43:27;97950.44;;;9.61;81.74
70952;BME280;69214;55.880;37.542;2023-05-01T04:45:53;97945.25;;;9.60;81.63
70952;BME280;69214;55.880;37.542;2023-05-01T04:48:19;97933.50;;;9.54;81.54
70952;BME280;69214;55.880;37.542;2023-05-01T04:50:45;97949.34;;;9.62;82.07
70952;BME280;69214;55.880;37.542;2023-05-01T04:53:11;97957.75;;;9.56;81.45
70952;BME280;69214;55.880;37.542;2023-05-01T04:55:36;97964.03;;;9.56;81.75
70952;BME280;69214;55.880;37.542;2023-05-01T04:58:11;97966.75;;;9.56;81.72
70952;BME280;69214;55.880;37.542;2023-05-01T05:00:37;97965.44;;;9.64;82.14
70952;BME280;69214;55.880;37.542;2023-05-01T05:03:06;97965.44;;;9.64;82.38
70952;BME280;69214;55.880;37.542;2023-05-01T05:05:32;97965.72;;;9.67;81.93
70952;BME280;69214;55.880;37.542;2023-05-01T05:07:58;97965.44;;;9.64;81.37
70952;BME280;69214;55.880;37.542;2023-05-01T05:10:31;97964.84;;;9.57;81.52
70952;BME280;69214;55.880;37.542;2023-05-01T05:13:13;97975.47;;;9.58;82.13
70952;BME280;69214;55.880;37.542;2023-05-01T05:15:39;97965.97;;;9.61;81.60
70952;BME280;69214;55.880;37.542;2023-05-01T05:18:07;97968.97;;;9.64;81.47
70952;BME280;69214;55.880;37.542;2023-05-01T05:20:37;97978.25;;;9.68;82.57
70952;BME280;69214;55.880;37.542;2023-05-01T05:23:02;97973.41;;;9.76;81.42
70952;BME280;69214;55.880;37.542;2023-05-01T05:25:28;97965.56;;;9.84;81.92
70952;BME280;69214;55.880;37.542;2023-05-01T05:27:54;97968.91;;;9.96;81.76
70952;BME280;69214;55.880;37.542;2023-05-01T05:30:19;97966.50;;;10.05;80.74
70952;BME280;69214;55.880;37.542;2023-05-01T05:32:45;97963.00;;;10.15;81.54
70952;BME280;69214;55.880;37.542;2023-05-01T05:35:12;97975.34;;;10.27;80.93
70952;BME280;69214;55.880;37.542;2023-05-01T05:37:38;97974.84;;;10.46;80.55
70952;BME280;69214;55.880;37.542;2023-05-01T05:40:05;97974.31;;;10.54;79.95
70952;BME280;69214;55.880;37.542;2023-05-01T05:42:37;97962.34;;;10.60;79.94
70952;BME280;69214;55.880;37.542;2023-05-01T05:45:05;97971.34;;;10.65;79.88
70952;BME280;69214;55.880;37.542;2023-05-01T05:47:31;97977.34;;;10.67;79.72
70952;BME280;69214;55.880;37.542;2023-05-01T05:49:58;97983.09;;;10.71;79.54
70952;BME280;69214;55.880;37.542;2023-05-01T05:52:24;97992.38;;;10.75;80.18
70952;BME280;69214;55.880;37.542;2023-05-01T05:54:49;97985.03;;;10.76;79.35
70952;BME280;69214;55.880;37.542;2023-05-01T05:57:16;97988.00;;;10.74;79.13
70952;BME280;69214;55.880;37.542;2023-05-01T05:59:47;97979.28;;;10.72;79.68
70952;BME280;69214;55.880;37.542;2023-05-01T06:02:13;97984.19;;;10.70;79.16
70952;BME280;69214;55.880;37.542;2023-05-01T06:04:39;97989.09;;;10.68;78.79
70952;BME280;69214;55.880;37.542;2023-05-01T06:07:05;97988.00;;;10.69;78.96
70952;BME280;69214;55.880;37.542;2023-05-01T06:09:31;97992.66;;;10.79;78.48
70952;BME280;69214;55.880;37.542;2023-05-01T06:11:56;97992.13;;;10.87;78.66
70952;BME280;69214;55.880;37.542;2023-05-01T06:14:23;97994.88;;;10.97;78.19
70952;BME280;69214;55.880;37.542;2023-05-01T06:16:49;97995.44;;;11.04;77.71
70952;BME280;69214;55.880;37.542;2023-05-01T06:19:15;97997.91;;;11.11;77.56
70952;BME280;69214;55.880;37.542;2023-05-01T06:21:41;97991.34;;;11.12;77.37
70952;BME280;69214;55.880;37.542;2023-05-01T06:24:09;98009.94;;;11.30;77.09
70952;BME280;69214;55.880;37.542;2023-05-01T06:26:44;98003.13;;;11.38;76.77
70952;BME280;69214;55.880;37.542;2023-05-01T06:29:09;98009.94;;;11.55;76.74
70952;BME280;69214;55.880;37.542;2023-05-01T06:31:35;98025.00;;;11.83;76.14
70952;BME280;69214;55.880;37.542;2023-05-01T06:34:01;98016.75;;;11.98;75.21
70952;BME280;69214;55.880;37.542;2023-05-01T06:36:33;98020.28;;;12.14;75.37
70952;BME280;69214;55.880;37.542;2023-05-01T06:38:59;98020.47;;;12.43;74.94
70952;BME280;69214;55.880;37.542;2023-05-01T06:41:24;98015.38;;;12.81;73.71
70952;BME280;69214;55.880;37.542;2023-05-01T06:43:51;98019.84;;;13.21;73.23
70952;BME280;69214;55.880;37.542;2023-05-01T06:46:17;98009.19;;;13.53;71.72
70952;BME280;69214;55.880;37.542;2023-05-01T06:48:42;98003.59;;;13.64;71.85
70952;BME280;69214;55.880;37.542;2023-05-01T06:51:11;98027.63;;;13.77;71.01
70952;BME280;69214;55.880;37.542;2023-05-01T06:53:39;98022.72;;;13.74;70.23
70952;BME280;69214;55.880;37.542;2023-05-01T06:56:06;98023.00;;;13.72;71.57
70952;BME280;69214;55.880;37.542;2023-05-01T06:58:32;98032.72;;;13.88;70.55
70952;BME280;69214;55.880;37.542;2023-05-01T07:00:58;98031.59;;;14.18;70.34
70952;BME280;69214;55.880;37.542;2023-05-01T07:03:24;98039.97;;;14.32;69.89
70952;BME280;69214;55.880;37.542;2023-05-01T07:05:53;98054.91;;;14.50;69.81
70952;BME280;69214;55.880;37.542;2023-05-01T07:08:19;98061.25;;;14.69;68.75
70952;BME280;69214;55.880;37.542;2023-05-01T07:10:45;98059.44;;;14.83;69.44
70952;BME280;69214;55.880;37.542;2023-05-01T07:13:11;98061.63;;;15.05;69.52
70952;BME280;69214;55.880;37.542;2023-05-01T07:15:37;98061.88;;;15.28;67.74
70952;BME280;69214;55.880;37.542;2023-05-01T07:18:03;98062.31;;;15.53;67.16
70952;BME280;69214;55.880;37.542;2023-05-01T07:20:32;98064.06;;;15.82;67.02
70952;BME280;69214;55.880;37.542;2023-05-01T07:22:59;98067.41;;;16.11;65.49
70952;BME280;69214;55.880;37.542;2023-05-01T07:25:25;98062.34;;;16.32;64.59
70952;BME280;69214;55.880;37.542;2023-05-01T07:27:51;98056.16;;;16.54;63.80
70952;BME280;69214;55.880;37.542;2023-05-01T07:30:16;98063.84;;;16.84;63.79
70952;BME280;69214;55.880;37.542;2023-05-01T07:32:43;98047.63;;;16.97;64.02
70952;BME280;69214;55.880;37.542;2023-05-01T07:35:09;98067.19;;;17.59;61.26
70952;BME280;69214;55.880;37.542;2023-05-01T07:37:35;98069.75;;;17.91;60.18
70952;BME280;69214;55.880;37.542;2023-05-01T07:40:01;98079.84;;;18.49;59.81
70952;BME280;69214;55.880;37.542;2023-05-01T07:42:28;98076.16;;;18.93;58.32
70952;BME280;69214;55.880;37.542;2023-05-01T07:44:54;98080.97;;;19.36;56.87
70952;BME280;69214;55.880;37.542;2023-05-01T07:47:19;98086.75;;;19.65;56.48
70952;BME280;69214;55.880;37.542;2023-05-01T07:49:45;98084.94;;;19.87;55.60
70952;BME280;69214;55.880;37.542;2023-05-01T07:52:11;98097.78;;;20.26;54.97
70952;BME280;69214;55.880;37.542;2023-05-01T07:54:36;98094.09;;;20.77;54.61
70952;BME280;69214;55.880;37.542;2023-05-01T07:57:05;98091.53;;;22.02;59.79
70952;BME280;69214;55.880;37.542;2023-05-01T07:59:31;98079.63;;;22.92;49.99
70952;BME280;69214;55.880;37.542;2023-05-01T08:01:56;98095.97;;;23.54;48.69
70952;BME280;69214;55.880;37.542;2023-05-01T08:04:22;98098.63;;;23.75;48.09
70952;BME280;69214;55.880;37.542;2023-05-01T08:06:51;98105.16;;;23.55;58.47
70952;BME280;69214;55.880;37.542;2023-05-01T08:09:16;98105.59;;;22.96;48.17
70952;BME280;69214;55.880;37.542;2023-05-01T08:11:42;98100.59;;;22.11;49.16
70952;BME280;69214;55.880;37.542;2023-05-01T08:14:08;98121.13;;;21.18;49.87
70952;BME280;69214;55.880;37.542;2023-05-01T08:16:34;98120.91;;;20.47;52.25
70952;BME280;69214;55.880;37.542;2023-05-01T08:19:00;98120.78;;;19.75;52.94
70952;BME280;69214;55.880;37.542;2023-05-01T08:21:26;98136.22;;;19.10;53.48
70952;BME280;69214;55.880;37.542;2023-05-01T08:23:54;98129.13;;;18.56;59.84
70952;BME280;69214;55.880;37.542;2023-05-01T08:26:20;98150.69;;;18.23;55.60
70952;BME280;69214;55.880;37.542;2023-05-01T08:28:46;98146.63;;;17.84;56.47
70952;BME280;69214;55.880;37.542;2023-05-01T08:31:12;98109.75;;;17.16;58.10
70952;BME280;69214;55.880;37.542;2023-05-01T08:33:38;98143.03;;;17.06;58.59
70952;BME280;69214;55.880;37.542;2023-05-01T08:36:07;98167.94;;;16.88;59.59
70952;BME280;69214;55.880;37.542;2023-05-01T08:38:35;98175.47;;;16.68;59.48
70952;BME280;69214;55.880;37.542;2023-05-01T08:41:00;98169.47;;;16.47;59.27
70952;BME280;69214;55.880;37.542;2023-05-01T08:43:31;98158.97;;;16.17;64.53
70952;BME280;69214;55.880;37.542;2023-05-01T08:46:00;98171.41;;;15.96;65.05
70952;BME280;69214;55.880;37.542;2023-05-01T08:48:28;98164.56;;;15.55;61.10
70952;BME280;69214;55.880;37.542;2023-05-01T08:50:56;98181.28;;;15.40;62.45
70952;BME280;69214;55.880;37.542;2023-05-01T08:53:25;98183.50;;;15.14;61.60
70952;BME280;69214;55.880;37.542;2023-05-01T08:55:53;98191.09;;;14.99;62.78
70952;BME280;69214;55.880;37.542;2023-05-01T08:58:23;98197.41;;;14.75;65.44
70952;BME280;69214;55.880;37.542;2023-05-01T09:00:49;98193.50;;;14.52;62.32
70952;BME280;69214;55.880;37.542;2023-05-01T09:03:15;98197.97;;;14.43;63.39
70952;BME280;69214;55.880;37.542;2023-05-01T09:05:42;98203.47;;;14.38;62.87
70952;BME280;69214;55.880;37.542;2023-05-01T09:08:08;98208.97;;;14.38;62.60
70952;BME280;69214;55.880;37.542;2023-05-01T09:10:40;98206.88;;;14.59;67.24
70952;BME280;69214;55.880;37.542;2023-05-01T09:13:07;98209.09;;;14.86;62.57
70952;BME280;69214;55.880;37.542;2023-05-01T09:15:34;98210.56;;;15.26;61.11
70952;BME280;69214;55.880;37.542;2023-05-01T09:18:00;98199.25;;;15.51;60.51
70952;BME280;69214;55.880;37.542;2023-05-01T09:20:27;98212.09;;;15.80;60.48
70952;BME280;69214;55.880;37.542;2023-05-01T09:22:54;98219.44;;;16.03;61.16
70952;BME280;69214;55.880;37.542;2023-05-01T09:25:21;98217.50;;;16.23;58.77
70952;BME280;69214;55.880;37.542;2023-05-01T09:27:48;98220.97;;;16.47;58.77
70952;BME280;69214;55.880;37.542;2023-05-01T09:30:33;98225.09;;;16.82;66.10
70952;BME280;69214;55.880;37.542;2023-05-01T09:33:13;98212.84;;;16.88;65.11
70952;BME280;69214;55.880;37.542;2023-05-01T09:38:19;98232.66;;;16.39;62.54
70952;BME280;69214;55.880;37.542;2023-05-01T09:40:45;98226.97;;;16.16;58.28
70952;BME280;69214;55.880;37.542;2023-05-01T09:43:11;98236.25;;;16.02;57.91
70952;BME280;69214;55.880;37.542;2023-05-01T09:45:37;98221.53;;;15.93;57.69
70952;BME280;69214;55.880;37.542;2023-05-01T09:48:08;98223.75;;;16.09;62.12
70952;BME280;69214;55.880;37.542;2023-05-01T09:50:37;98228.56;;;16.36;57.63
70952;BME280;69214;55.880;37.542;2023-05-01T09:53:06;98221.72;;;16.52;56.96
70952;BME280;69214;55.880;37.542;2023-05-01T09:55:33;98231.22;;;16.60;57.01
70952;BME280;69214;55.880;37.542;2023-05-01T09:57:59;98230.34;;;16.65;56.35
70952;BME280;69214;55.880;37.542;2023-05-01T10:00:25;98233.97;;;16.60;56.90
70952;BME280;69214;55.880;37.542;2023-05-01T10:02:51;98229.19;;;16.33;56.66
70952;BME280;69214;55.880;37.542;2023-05-01T10:05:18;98234.09;;;15.99;57.37
70952;BME280;69214;55.880;37.542;2023-05-01T10:07:59;98227.00;;;15.55;63.95
70952;BME280;69214;55.880;37.542;2023-05-01T10:10:25;98236.78;;;15.18;59.71
70952;BME280;69214;55.880;37.542;2023-05-01T10:12:52;98229.00;;;14.73;60.09
70952;BME280;69214;55.880;37.542;2023-05-01T10:15:18;98254.13;;;14.56;60.01
70952;BME280;69214;55.880;37.542;2023-05-01T10:17:45;98265.25;;;14.36;60.51
70952;BME280;69214;55.880;37.542;2023-05-01T10:20:13;98264.91;;;14.03;61.37
70952;BME280;69214;55.880;37.542;2023-05-01T10:22:40;98269.81;;;13.57;62.46
70952;BME280;69214;55.880;37.542;2023-05-01T10:25:11;98283.34;;;13.13;64.14
70952;BME280;69214;55.880;37.542;2023-05-01T10:27:40;98281.19;;;12.79;66.49
70952;BME280;69214;55.880;37.542;2023-05-01T10:30:07;98286.13;;;12.62;65.76
70952;BME280;69214;55.880;37.542;2023-05-01T10:32:36;98295.13;;;12.32;66.67
70952;BME280;69214;55.880;37.542;2023-05-01T10:35:14;98303.81;;;11.98;69.37
70952;BME280;69214;55.880;37.542;2023-05-01T10:37:47;98314.09;;;11.71;68.10
70952;BME280;69214;55.880;37.542;2023-05-01T10:43:25;98320.94;;;11.21;71.36
70952;BME280;69214;55.880;37.542;2023-05-01T10:51:25;98317.78;;;10.28;71.89
70952;BME280;69214;55.880;37.542;2023-05-01T10:56:41;98350.59;;;9.90;70.65
70952;BME280;69214;55.880;37.542;2023-05-01T10:59:07;98360.22;;;9.76;69.89
70952;BME280;69214;55.880;37.542;2023-05-01T11:01:40;98353.75;;;9.60;72.42
70952;BME280;69214;55.880;37.542;2023-05-01T11:09:54;98392.38;;;9.01;72.97
70952;BME280;69214;55.880;37.542;2023-05-01T11:15:11;98395.53;;;8.76;72.89
70952;BME280;69214;55.880;37.542;2023-05-01T11:20:08;98383.28;;;8.46;72.10
70952;BME280;69214;55.880;37.542;2023-05-01T11:22:35;98397.06;;;8.56;72.60
70952;BME280;69214;55.880;37.542;2023-05-01T11:25:01;98410.16;;;8.59;71.27
70952;BME280;69214;55.880;37.542;2023-05-01T11:27:30;98404.72;;;8.59;72.70
70952;BME280;69214;55.880;37.542;2023-05-01T11:29:58;98413.72;;;8.59;72.80
70952;BME280;69214;55.880;37.542;2023-05-01T11:32:27;98411.25;;;8.58;72.73
70952;BME280;69214;55.880;37.542;2023-05-01T11:34:54;98401.81;;;8.49;71.65
70952;BME280;69214;55.880;37.542;2023-05-01T11:37:42;98416.41;;;8.42;73.56
70952;BME280;69214;55.880;37.542;2023-05-01T11:40:29;98428.34;;;8.41;73.04
70952;BME280;69214;55.880;37.542;2023-05-01T11:43:07;98427.84;;;8.44;73.15
70952;BME280;69214;55.880;37.542;2023-05-01T11:45:35;98447.50;;;8.35;71.07
70952;BME280;69214;55.880;37.542;2023-05-01T11:48:01;98433.34;;;8.21;72.40
70952;BME280;69214;55.880;37.542;2023-05-01T11:50:37;98445.28;;;8.20;73.25
70952;BME280;69214;55.880;37.542;2023-05-01T11:53:10;98454.38;;;8.26;73.78
70952;BME280;69214;55.880;37.542;2023-05-01T11:55:37;98445.28;;;8.20;73.39
70952;BME280;69214;55.880;37.542;2023-05-01T11:58:04;98444.94;;;8.17;72.79
70952;BME280;69214;55.880;37.542;2023-05-01T12:00:32;98452.28;;;8.16;73.28
70952;BME280;69214;55.880;37.542;2023-05-01T12:05:26;98463.75;;;8.06;72.52
70952;BME280;69214;55.880;37.542;2023-05-01T12:08:16;98477.47;;;8.00;75.02
70952;BME280;69214;55.880;37.542;2023-05-01T12:10:49;98480.31;;;7.93;73.95
70952;BME280;69214;55.880;37.542;2023-05-01T12:13:15;98477.72;;;7.87;73.53
70952;BME280;69214;55.880;37.542;2023-05-01T12:15:43;98487.53;;;7.88;73.55
70952;BME280;69214;55.880;37.542;2023-05-01T12:18:10;98493.44;;;7.85;73.65
70952;BME280;69214;55.880;37.542;2023-05-01T12:20:45;98493.44;;;7.73;73.80
70952;BME280;69214;55.880;37.542;2023-05-01T12:23:34;98498.66;;;7.74;74.21
70952;BME280;69214;55.880;37.542;2023-05-01T12:26:14;98515.19;;;7.73;74.54
70952;BME280;69214;55.880;37.542;2023-05-01T12:31:21;98514.47;;;7.77;73.67
70952;BME280;69214;55.880;37.542;2023-05-01T12:33:55;98512.00;;;7.76;73.93
70952;BME280;69214;55.880;37.542;2023-05-01T12:36:25;98497.00;;;7.73;74.01
70952;BME280;69214;55.880;37.542;2023-05-01T12:38:57;98506.66;;;7.81;74.95
70952;BME280;69214;55.880;37.542;2023-05-01T12:41:42;98509.97;;;7.95;74.10
70952;BME280;69214;55.880;37.542;2023-05-01T12:46:55;98524.13;;;8.08;74.44
70952;BME280;69214;55.880;37.542;2023-05-01T12:49:22;98517.63;;;8.09;72.85
70952;BME280;69214;55.880;37.542;2023-05-01T12:51:49;98527.28;;;8.29;73.02
70952;BME280;69214;55.880;37.542;2023-05-01T12:54:21;98536.25;;;8.41;73.26
70952;BME280;69214;55.880;37.542;2023-05-01T12:56:48;98521.22;;;8.50;72.80
70952;BME280;69214;55.880;37.542;2023-05-01T12:59:22;98533.19;;;8.37;73.62
70952;BME280;69214;55.880;37.542;2023-05-01T13:01:58;98537.31;;;8.28;73.16
70952;BME280;69214;55.880;37.542;2023-05-01T13:04:25;98551.38;;;8.25;73.18
70952;BME280;69214;55.880;37.542;2023-05-01T13:06:55;98541.56;;;8.24;72.89
70952;BME280;69214;55.880;37.542;2023-05-01T13:09:22;98552.44;;;8.36;72.80
70952;BME280;69214;55.880;37.542;2023-05-01T13:12:02;98555.28;;;8.41;72.91
70952;BME280;69214;55.880;37.542;2023-05-01T13:14:37;98545.00;;;8.31;73.18
70952;BME280;69214;55.880;37.542;2023-05-01T13:17:07;98545.59;;;8.33;73.60
70952;BME280;69214;55.880;37.542;2023-05-01T13:19:33;98556.56;;;8.27;73.24
70952;BME280;69214;55.880;37.542;2023-05-01T13:21:59;98560.94;;;8.28;73.26
70952;BME280;69214;55.880;37.542;2023-05-01T13:24:44;98563.56;;;8.34;73.29
70952;BME280;69214;55.880;37.542;2023-05-01T13:27:11;98574.53;;;8.39;72.76
70952;BME280;69214;55.880;37.542;2023-05-01T13:29:38;98564.72;;;8.50;72.39
70952;BME280;69214;55.880;37.542;2023-05-01T13:32:09;98568.03;;;8.81;72.89
70952;BME280;69214;55.880;37.542;2023-05-01T13:34:35;98578.19;;;9.14;71.00
70952;BME280;69214;55.880;37.542;2023-05-01T13:37:02;98580.69;;;9.32;69.65
70952;BME280;69214;55.880;37.542;2023-05-01T13:39:28;98582.13;;;9.51;70.60
70952;BME280;69214;55.880;37.542;2023-05-01T13:41:53;98575.53;;;9.64;69.97
70952;BME280;69214;55.880;37.542;2023-05-01T13:44:20;98565.38;;;9.76;69.75
70952;BME280;69214;55.880;37.542;2023-05-01T13:46:46;98595.91;;;9.95;68.92
70952;BME280;69214;55.880;37.542;2023-05-01T13:49:13;98598.72;;;10.00;68.17
70952;BME280;69214;55.880;37.542;2023-05-01T13:51:41;98589.38;;;9.96;69.18
70952;BME280;69214;55.880;37.542;2023-05-01T13:54:09;98590.88;;;9.87;67.90
70952;BME280;69214;55.880;37.542;2023-05-01T13:56:37;98594.84;;;9.79;69.02